sensor_id;sensor_type;location;lat;lon;timestamp;P1;durP1;ratioP1;P2;durP2;ratioP2
35891;SDS011;21993;42.672;23.296;2024-03-17T00:01:00;26.57;;;14.63;;
35891;SDS011;21993;42.672;23.296;2024-03-17T00:03:26;24.57;;;14.67;;
35891;SDS011;21993;42.672;23.296;2024-03-17T00:05:58;23.77;;;14.93;;
35891;SDS011;21993;42.672;23.296;2024-03-17T00:08:26;20.97;;;12.90;;
35891;SDS011;21993;42.672;23.296;2024-03-17T00:10:54;24.30;;;15.40;;
35891;SDS011;21993;42.672;23.296;2024-03-17T00:13:20;28.00;;;15.53;;
35891;SDS011;21993;42.672;23.296;2024-03-17T00:15:47;28.13;;;16.23;;
35891;SDS011;21993;42.672;23.296;2024-03-17T00:18:13;23.10;;;15.83;;
35891;SDS011;21993;42.672;23.296;2024-03-17T00:20:39;24.33;;;14.27;;
35891;SDS011;21993;42.672;23.296;2024-03-17T00:23:05;26.83;;;15.23;;
35891;SDS011;21993;42.672;23.296;2024-03-17T00:25:34;27.47;;;15.53;;
35891;SDS011;21993;42.672;23.296;2024-03-17T00:28:01;23.30;;;13.77;;
35891;SDS011;21993;42.672;23.296;2024-03-17T00:30:27;23.57;;;13.73;;
35891;SDS011;21993;42.672;23.296;2024-03-17T00:32:52;27.77;;;14.73;;
35891;SDS011;21993;42.672;23.296;2024-03-17T00:35:18;22.73;;;14.70;;
35891;SDS011;21993;42.672;23.296;2024-03-17T00:37:49;23.63;;;13.20;;
35891;SDS011;21993;42.672;23.296;2024-03-17T00:40:16;23.10;;;13.90;;
35891;SDS011;21993;42.672;23.296;2024-03-17T00:42:45;25.83;;;15.13;;
35891;SDS011;21993;42.672;23.296;2024-03-17T00:45:11;22.53;;;14.10;;
35891;SDS011;21993;42.672;23.296;2024-03-17T00:47:36;22.60;;;13.93;;
35891;SDS011;21993;42.672;23.296;2024-03-17T00:50:02;24.27;;;14.00;;
35891;SDS011;21993;42.672;23.296;2024-03-17T00:52:29;23.97;;;13.57;;
35891;SDS011;21993;42.672;23.296;2024-03-17T00:54:55;24.20;;;13.60;;
35891;SDS011;21993;42.672;23.296;2024-03-17T00:57:21;29.07;;;14.13;;
35891;SDS011;21993;42.672;23.296;2024-03-17T00:59:46;22.00;;;13.17;;
35891;SDS011;21993;42.672;23.296;2024-03-17T01:02:12;20.57;;;13.13;;
35891;SDS011;21993;42.672;23.296;2024-03-17T01:04:40;23.33;;;14.23;;
35891;SDS011;21993;42.672;23.296;2024-03-17T01:07:05;23.43;;;14.03;;
35891;SDS011;21993;42.672;23.296;2024-03-17T01:09:31;24.20;;;13.30;;
35891;SDS011;21993;42.672;23.296;2024-03-17T01:11:56;22.30;;;13.60;;
35891;SDS011;21993;42.672;23.296;2024-03-17T01:14:22;24.87;;;14.30;;
35891;SDS011;21993;42.672;23.296;2024-03-17T01:16:50;22.27;;;13.43;;
35891;SDS011;21993;42.672;23.296;2024-03-17T01:19:16;23.80;;;13.90;;
35891;SDS011;21993;42.672;23.296;2024-03-17T01:21:42;22.93;;;13.67;;
35891;SDS011;21993;42.672;23.296;2024-03-17T01:24:08;24.33;;;13.40;;
35891;SDS011;21993;42.672;23.296;2024-03-17T01:26:33;23.47;;;12.83;;
35891;SDS011;21993;42.672;23.296;2024-03-17T01:28:59;27.93;;;14.07;;
35891;SDS011;21993;42.672;23.296;2024-03-17T01:31:24;21.40;;;13.60;;
35891;SDS011;21993;42.672;23.296;2024-03-17T01:33:50;20.53;;;12.70;;
35891;SDS011;21993;42.672;23.296;2024-03-17T01:36:15;21.20;;;13.33;;
35891;SDS011;21993;42.672;23.296;2024-03-17T01:38:41;21.10;;;13.70;;
35891;SDS011;21993;42.672;23.296;2024-03-17T01:41:07;19.47;;;13.60;;
35891;SDS011;21993;42.672;23.296;2024-03-17T01:43:32;21.57;;;13.10;;
35891;SDS011;21993;42.672;23.296;2024-03-17T01:45:58;23.30;;;13.67;;
35891;SDS011;21993;42.672;23.296;2024-03-17T01:48:24;24.90;;;14.53;;
35891;SDS011;21993;42.672;23.296;2024-03-17T01:50:52;23.27;;;13.63;;
35891;SDS011;21993;42.672;23.296;2024-03-17T01:53:20;23.97;;;13.80;;
35891;SDS011;21993;42.672;23.296;2024-03-17T01:55:52;27.20;;;13.63;;
35891;SDS011;21993;42.672;23.296;2024-03-17T01:58:22;23.43;;;14.13;;
35891;SDS011;21993;42.672;23.296;2024-03-17T02:00:50;23.17;;;14.33;;
35891;SDS011;21993;42.672;23.296;2024-03-17T02:03:17;20.60;;;12.67;;
35891;SDS011;21993;42.672;23.296;2024-03-17T02:05:43;21.03;;;13.50;;
35891;SDS011;21993;42.672;23.296;2024-03-17T02:08:09;20.83;;;12.83;;
35891;SDS011;21993;42.672;23.296;2024-03-17T02:10:36;22.40;;;13.83;;
35891;SDS011;21993;42.672;23.296;2024-03-17T02:13:02;22.03;;;13.83;;
35891;SDS011;21993;42.672;23.296;2024-03-17T02:15:28;25.40;;;13.77;;
35891;SDS011;21993;42.672;23.296;2024-03-17T02:17:54;23.00;;;13.97;;
35891;SDS011;21993;42.672;23.296;2024-03-17T02:20:20;26.70;;;14.43;;
35891;SDS011;21993;42.672;23.296;2024-03-17T02:22:50;23.73;;;13.60;;
35891;SDS011;21993;42.672;23.296;2024-03-17T02:25:15;21.23;;;13.70;;
35891;SDS011;21993;42.672;23.296;2024-03-17T02:27:41;25.80;;;14.07;;
35891;SDS011;21993;42.672;23.296;2024-03-17T02:30:06;24.83;;;14.40;;
35891;SDS011;21993;42.672;23.296;2024-03-17T02:32:34;24.50;;;14.73;;
35891;SDS011;21993;42.672;23.296;2024-03-17T02:35:00;25.60;;;14.77;;
35891;SDS011;21993;42.672;23.296;2024-03-17T02:37:26;25.90;;;14.53;;
35891;SDS011;21993;42.672;23.296;2024-03-17T02:39:52;24.60;;;14.53;;
35891;SDS011;21993;42.672;23.296;2024-03-17T02:42:18;23.13;;;13.70;;
35891;SDS011;21993;42.672;23.296;2024-03-17T02:44:44;22.53;;;13.20;;
35891;SDS011;21993;42.672;23.296;2024-03-17T02:47:10;22.73;;;13.53;;
35891;SDS011;21993;42.672;23.296;2024-03-17T02:49:39;24.87;;;14.43;;
35891;SDS011;21993;42.672;23.296;2024-03-17T02:52:08;24.23;;;13.33;;
35891;SDS011;21993;42.672;23.296;2024-03-17T02:54:35;24.27;;;13.53;;
35891;SDS011;21993;42.672;23.296;2024-03-17T02:57:04;25.53;;;14.47;;
35891;SDS011;21993;42.672;23.296;2024-03-17T02:59:30;22.03;;;14.07;;
35891;SDS011;21993;42.672;23.296;2024-03-17T03:01:56;24.80;;;13.90;;
35891;SDS011;21993;42.672;23.296;2024-03-17T03:04:21;26.40;;;15.10;;
35891;SDS011;21993;42.672;23.296;2024-03-17T03:06:47;27.90;;;13.93;;
35891;SDS011;21993;42.672;23.296;2024-03-17T03:09:13;25.50;;;14.97;;
35891;SDS011;21993;42.672;23.296;2024-03-17T03:11:40;23.60;;;14.30;;
35891;SDS011;21993;42.672;23.296;2024-03-17T03:14:06;27.57;;;14.60;;
35891;SDS011;21993;42.672;23.296;2024-03-17T03:16:32;23.43;;;14.03;;
35891;SDS011;21993;42.672;23.296;2024-03-17T03:18:58;25.03;;;13.87;;
35891;SDS011;21993;42.672;23.296;2024-03-17T03:21:24;23.83;;;14.93;;
35891;SDS011;21993;42.672;23.296;2024-03-17T03:23:50;21.77;;;14.17;;
35891;SDS011;21993;42.672;23.296;2024-03-17T03:26:16;27.37;;;15.60;;
35891;SDS011;21993;42.672;23.296;2024-03-17T03:28:43;27.80;;;14.80;;
35891;SDS011;21993;42.672;23.296;2024-03-17T03:31:11;22.03;;;13.93;;
35891;SDS011;21993;42.672;23.296;2024-03-17T03:33:40;24.03;;;13.97;;
35891;SDS011;21993;42.672;23.296;2024-03-17T03:36:07;26.83;;;14.90;;
35891;SDS011;21993;42.672;23.296;2024-03-17T03:38:36;32.13;;;14.97;;
35891;SDS011;21993;42.672;23.296;2024-03-17T03:41:06;27.17;;;14.83;;
35891;SDS011;21993;42.672;23.296;2024-03-17T03:43:35;24.30;;;13.03;;
35891;SDS011;21993;42.672;23.296;2024-03-17T03:46:01;22.83;;;12.90;;
35891;SDS011;21993;42.672;23.296;2024-03-17T03:48:27;26.73;;;14.43;;
35891;SDS011;21993;42.672;23.296;2024-03-17T03:50:53;28.47;;;14.37;;
35891;SDS011;21993;42.672;23.296;2024-03-17T03:53:19;22.23;;;13.30;;
35891;SDS011;21993;42.672;23.296;2024-03-17T03:55:45;25.00;;;13.83;;
35891;SDS011;21993;42.672;23.296;2024-03-17T03:58:10;25.33;;;13.73;;
35891;SDS011;21993;42.672;23.296;2024-03-17T04:00:37;28.70;;;14.90;;
35891;SDS011;21993;42.672;23.296;2024-03-17T04:03:06;25.73;;;13.33;;
35891;SDS011;21993;42.672;23.296;2024-03-17T04:05:31;27.27;;;13.83;;
35891;SDS011;21993;42.672;23.296;2024-03-17T04:07:58;26.63;;;14.00;;
35891;SDS011;21993;42.672;23.296;2024-03-17T04:10:25;25.73;;;14.97;;
35891;SDS011;21993;42.672;23.296;2024-03-17T04:12:51;27.97;;;14.67;;
35891;SDS011;21993;42.672;23.296;2024-03-17T04:15:17;22.77;;;14.43;;
35891;SDS011;21993;42.672;23.296;2024-03-17T04:17:43;23.63;;;13.23;;
35891;SDS011;21993;42.672;23.296;2024-03-17T04:20:09;26.17;;;14.47;;
35891;SDS011;21993;42.672;23.296;2024-03-17T04:22:38;25.33;;;15.03;;
35891;SDS011;21993;42.672;23.296;2024-03-17T04:25:04;31.67;;;16.07;;
35891;SDS011;21993;42.672;23.296;2024-03-17T04:27:30;27.50;;;15.13;;
35891;SDS011;21993;42.672;23.296;2024-03-17T04:29:56;26.07;;;14.90;;
35891;SDS011;21993;42.672;23.296;2024-03-17T04:32:24;25.33;;;14.23;;
35891;SDS011;21993;42.672;23.296;2024-03-17T04:34:52;27.20;;;14.27;;
35891;SDS011;21993;42.672;23.296;2024-03-17T04:37:17;26.07;;;14.37;;
35891;SDS011;21993;42.672;23.296;2024-03-17T04:39:44;30.87;;;14.97;;
35891;SDS011;21993;42.672;23.296;2024-03-17T04:42:11;25.83;;;13.77;;
35891;SDS011;21993;42.672;23.296;2024-03-17T04:44:41;25.37;;;14.03;;
35891;SDS011;21993;42.672;23.296;2024-03-17T04:47:07;28.37;;;15.10;;
35891;SDS011;21993;42.672;23.296;2024-03-17T04:49:38;24.23;;;14.70;;
35891;SDS011;21993;42.672;23.296;2024-03-17T04:52:04;22.63;;;13.63;;
35891;SDS011;21993;42.672;23.296;2024-03-17T04:54:31;26.80;;;15.30;;
35891;SDS011;21993;42.672;23.296;2024-03-17T04:56:57;24.97;;;14.70;;
35891;SDS011;21993;42.672;23.296;2024-03-17T04:59:22;28.23;;;16.03;;
35891;SDS011;21993;42.672;23.296;2024-03-17T05:01:48;26.23;;;13.87;;
35891;SDS011;21993;42.672;23.296;2024-03-17T05:04:13;29.53;;;14.87;;
35891;SDS011;21993;42.672;23.296;2024-03-17T05:06:40;25.80;;;13.57;;
35891;SDS011;21993;42.672;23.296;2024-03-17T05:09:07;18.93;;;12.37;;
35891;SDS011;21993;42.672;23.296;2024-03-17T05:11:33;24.67;;;15.07;;
35891;SDS011;21993;42.672;23.296;2024-03-17T05:14:00;21.97;;;12.63;;
35891;SDS011;21993;42.672;23.296;2024-03-17T05:16:26;22.93;;;13.90;;
35891;SDS011;21993;42.672;23.296;2024-03-17T05:18:54;24.57;;;14.50;;
35891;SDS011;21993;42.672;23.296;2024-03-17T05:21:20;24.67;;;13.33;;
35891;SDS011;21993;42.672;23.296;2024-03-17T05:23:47;23.10;;;12.90;;
35891;SDS011;21993;42.672;23.296;2024-03-17T05:26:13;24.57;;;14.07;;
35891;SDS011;21993;42.672;23.296;2024-03-17T05:28:39;25.47;;;13.53;;
35891;SDS011;21993;42.672;23.296;2024-03-17T05:31:04;26.93;;;15.07;;
35891;SDS011;21993;42.672;23.296;2024-03-17T05:33:30;23.37;;;14.00;;
35891;SDS011;21993;42.672;23.296;2024-03-17T05:35:59;25.40;;;14.63;;
35891;SDS011;21993;42.672;23.296;2024-03-17T05:38:27;29.80;;;16.10;;
35891;SDS011;21993;42.672;23.296;2024-03-17T05:40:57;22.97;;;13.97;;
35891;SDS011;21993;42.672;23.296;2024-03-17T05:43:27;26.23;;;13.40;;
35891;SDS011;21993;42.672;23.296;2024-03-17T05:45:54;27.47;;;14.70;;
35891;SDS011;21993;42.672;23.296;2024-03-17T05:48:22;36.93;;;20.13;;
35891;SDS011;21993;42.672;23.296;2024-03-17T05:50:49;65.67;;;29.30;;
35891;SDS011;21993;42.672;23.296;2024-03-17T05:53:16;62.83;;;29.17;;
35891;SDS011;21993;42.672;23.296;2024-03-17T05:55:43;41.57;;;21.27;;
35891;SDS011;21993;42.672;23.296;2024-03-17T05:58:10;29.73;;;15.20;;
35891;SDS011;21993;42.672;23.296;2024-03-17T06:00:36;23.77;;;13.87;;
35891;SDS011;21993;42.672;23.296;2024-03-17T06:03:03;22.50;;;13.53;;
35891;SDS011;21993;42.672;23.296;2024-03-17T06:05:33;27.03;;;15.60;;
35891;SDS011;21993;42.672;23.296;2024-03-17T06:08:00;26.50;;;15.27;;
35891;SDS011;21993;42.672;23.296;2024-03-17T06:10:28;23.53;;;13.70;;
35891;SDS011;21993;42.672;23.296;2024-03-17T06:12:55;26.57;;;15.27;;
35891;SDS011;21993;42.672;23.296;2024-03-17T06:15:21;26.50;;;15.30;;
35891;SDS011;21993;42.672;23.296;2024-03-17T06:17:48;24.93;;;14.40;;
35891;SDS011;21993;42.672;23.296;2024-03-17T06:20:14;25.23;;;15.00;;
35891;SDS011;21993;42.672;23.296;2024-03-17T06:22:41;24.17;;;14.27;;
35891;SDS011;21993;42.672;23.296;2024-03-17T06:25:06;24.23;;;14.03;;
35891;SDS011;21993;42.672;23.296;2024-03-17T06:27:32;20.07;;;13.10;;
35891;SDS011;21993;42.672;23.296;2024-03-17T06:30:01;23.50;;;13.70;;
35891;SDS011;21993;42.672;23.296;2024-03-17T06:32:38;20.27;;;12.60;;
35891;SDS011;21993;42.672;23.296;2024-03-17T06:35:03;22.83;;;13.70;;
35891;SDS011;21993;42.672;23.296;2024-03-17T06:37:29;19.20;;;12.80;;
35891;SDS011;21993;42.672;23.296;2024-03-17T06:39:55;19.80;;;10.97;;
35891;SDS011;21993;42.672;23.296;2024-03-17T06:42:20;22.17;;;13.23;;
35891;SDS011;21993;42.672;23.296;2024-03-17T06:44:46;17.30;;;10.73;;
35891;SDS011;21993;42.672;23.296;2024-03-17T06:47:11;16.80;;;9.97;;
35891;SDS011;21993;42.672;23.296;2024-03-17T06:49:37;20.27;;;10.40;;
35891;SDS011;21993;42.672;23.296;2024-03-17T06:52:03;22.10;;;11.23;;
35891;SDS011;21993;42.672;23.296;2024-03-17T06:54:28;15.83;;;9.57;;
35891;SDS011;21993;42.672;23.296;2024-03-17T06:56:54;16.10;;;9.47;;
35891;SDS011;21993;42.672;23.296;2024-03-17T06:59:19;19.63;;;11.67;;
35891;SDS011;21993;42.672;23.296;2024-03-17T07:01:48;15.43;;;9.87;;
35891;SDS011;21993;42.672;23.296;2024-03-17T07:04:14;17.43;;;10.87;;
35891;SDS011;21993;42.672;23.296;2024-03-17T07:06:41;19.17;;;11.40;;
35891;SDS011;21993;42.672;23.296;2024-03-17T07:09:07;18.53;;;10.60;;
35891;SDS011;21993;42.672;23.296;2024-03-17T07:11:34;20.87;;;11.33;;
35891;SDS011;21993;42.672;23.296;2024-03-17T07:14:00;18.50;;;11.87;;
35891;SDS011;21993;42.672;23.296;2024-03-17T07:16:26;16.83;;;11.27;;
35891;SDS011;21993;42.672;23.296;2024-03-17T07:18:52;19.70;;;10.80;;
35891;SDS011;21993;42.672;23.296;2024-03-17T07:21:21;18.80;;;12.17;;
35891;SDS011;21993;42.672;23.296;2024-03-17T07:23:47;22.83;;;12.20;;
35891;SDS011;21993;42.672;23.296;2024-03-17T07:26:12;17.77;;;11.13;;
35891;SDS011;21993;42.672;23.296;2024-03-17T07:28:39;21.83;;;11.97;;
35891;SDS011;21993;42.672;23.296;2024-03-17T07:31:06;26.47;;;13.33;;
35891;SDS011;21993;42.672;23.296;2024-03-17T07:33:34;17.77;;;11.63;;
35891;SDS011;21993;42.672;23.296;2024-03-17T07:36:00;17.97;;;11.37;;
35891;SDS011;21993;42.672;23.296;2024-03-17T07:38:27;23.50;;;13.03;;
35891;SDS011;21993;42.672;23.296;2024-03-17T07:41:07;18.70;;;11.23;;
35891;SDS011;21993;42.672;23.296;2024-03-17T07:43:34;19.80;;;13.13;;
35891;SDS011;21993;42.672;23.296;2024-03-17T07:46:03;22.77;;;12.87;;
35891;SDS011;21993;42.672;23.296;2024-03-17T07:48:30;25.97;;;13.60;;
35891;SDS011;21993;42.672;23.296;2024-03-17T07:50:57;25.17;;;13.87;;
35891;SDS011;21993;42.672;23.296;2024-03-17T07:53:26;27.27;;;13.90;;
35891;SDS011;21993;42.672;23.296;2024-03-17T07:56:04;25.80;;;13.50;;
35891;SDS011;21993;42.672;23.296;2024-03-17T07:58:32;25.83;;;12.97;;
35891;SDS011;21993;42.672;23.296;2024-03-17T08:00:59;19.83;;;11.87;;
35891;SDS011;21993;42.672;23.296;2024-03-17T08:03:25;20.17;;;12.33;;
35891;SDS011;21993;42.672;23.296;2024-03-17T08:05:51;19.67;;;11.90;;
35891;SDS011;21993;42.672;23.296;2024-03-17T08:08:17;16.63;;;9.40;;
35891;SDS011;21993;42.672;23.296;2024-03-17T08:10:45;18.23;;;10.57;;
35891;SDS011;21993;42.672;23.296;2024-03-17T08:13:13;19.90;;;12.03;;
35891;SDS011;21993;42.672;23.296;2024-03-17T08:15:41;15.13;;;9.33;;
35891;SDS011;21993;42.672;23.296;2024-03-17T08:18:08;18.93;;;10.67;;
35891;SDS011;21993;42.672;23.296;2024-03-17T08:20:38;21.17;;;11.37;;
35891;SDS011;21993;42.672;23.296;2024-03-17T08:23:07;17.83;;;11.47;;
35891;SDS011;21993;42.672;23.296;2024-03-17T08:25:33;17.97;;;11.30;;
35891;SDS011;21993;42.672;23.296;2024-03-17T08:28:00;19.13;;;10.70;;
35891;SDS011;21993;42.672;23.296;2024-03-17T08:30:28;17.90;;;10.27;;
35891;SDS011;21993;42.672;23.296;2024-03-17T08:32:55;15.90;;;10.03;;
35891;SDS011;21993;42.672;23.296;2024-03-17T08:35:21;18.03;;;10.43;;
35891;SDS011;21993;42.672;23.296;2024-03-17T08:37:47;16.70;;;10.47;;
35891;SDS011;21993;42.672;23.296;2024-03-17T08:40:13;18.03;;;10.73;;
35891;SDS011;21993;42.672;23.296;2024-03-17T08:42:39;18.07;;;10.33;;
35891;SDS011;21993;42.672;23.296;2024-03-17T08:45:05;18.80;;;10.87;;
35891;SDS011;21993;42.672;23.296;2024-03-17T08:47:31;22.13;;;12.03;;
35891;SDS011;21993;42.672;23.296;2024-03-17T08:49:57;16.90;;;11.17;;
35891;SDS011;21993;42.672;23.296;2024-03-17T08:52:23;23.57;;;12.73;;
35891;SDS011;21993;42.672;23.296;2024-03-17T08:54:49;21.43;;;11.80;;
35891;SDS011;21993;42.672;23.296;2024-03-17T08:57:18;23.60;;;13.13;;
35891;SDS011;21993;42.672;23.296;2024-03-17T08:59:47;21.43;;;11.67;;
35891;SDS011;21993;42.672;23.296;2024-03-17T09:02:12;19.40;;;11.97;;
35891;SDS011;21993;42.672;23.296;2024-03-17T09:04:40;20.17;;;11.43;;
35891;SDS011;21993;42.672;23.296;2024-03-17T09:07:06;20.10;;;11.37;;
35891;SDS011;21993;42.672;23.296;2024-03-17T09:09:31;17.50;;;10.43;;
35891;SDS011;21993;42.672;23.296;2024-03-17T09:11:57;17.53;;;11.27;;
35891;SDS011;21993;42.672;23.296;2024-03-17T09:14:22;15.97;;;10.27;;
35891;SDS011;21993;42.672;23.296;2024-03-17T09:16:48;17.67;;;9.40;;
35891;SDS011;21993;42.672;23.296;2024-03-17T09:19:13;14.30;;;9.57;;
35891;SDS011;21993;42.672;23.296;2024-03-17T09:21:39;16.47;;;9.47;;
35891;SDS011;21993;42.672;23.296;2024-03-17T09:24:05;17.27;;;9.27;;
35891;SDS011;21993;42.672;23.296;2024-03-17T09:26:35;16.33;;;10.30;;
35891;SDS011;21993;42.672;23.296;2024-03-17T09:29:00;14.80;;;7.70;;
35891;SDS011;21993;42.672;23.296;2024-03-17T09:31:26;13.13;;;8.20;;
35891;SDS011;21993;42.672;23.296;2024-03-17T09:33:52;13.97;;;7.50;;
35891;SDS011;21993;42.672;23.296;2024-03-17T09:36:17;11.57;;;7.27;;
35891;SDS011;21993;42.672;23.296;2024-03-17T09:38:43;8.93;;;6.47;;
35891;SDS011;21993;42.672;23.296;2024-03-17T09:41:19;8.73;;;6.80;;
35891;SDS011;21993;42.672;23.296;2024-03-17T09:43:56;10.67;;;5.80;;
35891;SDS011;21993;42.672;23.296;2024-03-17T09:46:26;8.50;;;5.87;;
35891;SDS011;21993;42.672;23.296;2024-03-17T09:48:54;8.20;;;5.73;;
35891;SDS011;21993;42.672;23.296;2024-03-17T09:51:26;8.40;;;5.77;;
35891;SDS011;21993;42.672;23.296;2024-03-17T09:53:52;7.23;;;4.97;;
35891;SDS011;21993;42.672;23.296;2024-03-17T09:56:18;8.90;;;5.60;;
35891;SDS011;21993;42.672;23.296;2024-03-17T09:58:45;8.07;;;5.77;;
35891;SDS011;21993;42.672;23.296;2024-03-17T10:01:11;7.80;;;4.90;;
35891;SDS011;21993;42.672;23.296;2024-03-17T10:06:11;7.63;;;4.33;;
35891;SDS011;21993;42.672;23.296;2024-03-17T10:11:07;5.60;;;4.53;;
35891;SDS011;21993;42.672;23.296;2024-03-17T10:13:33;6.77;;;4.50;;
35891;SDS011;21993;42.672;23.296;2024-03-17T10:15:59;6.37;;;4.73;;
35891;SDS011;21993;42.672;23.296;2024-03-17T10:18:24;7.13;;;4.43;;
35891;SDS011;21993;42.672;23.296;2024-03-17T10:20:50;5.83;;;4.43;;
35891;SDS011;21993;42.672;23.296;2024-03-17T10:23:22;7.30;;;4.40;;
35891;SDS011;21993;42.672;23.296;2024-03-17T10:25:48;8.67;;;4.37;;
35891;SDS011;21993;42.672;23.296;2024-03-17T10:28:15;5.77;;;4.70;;
35891;SDS011;21993;42.672;23.296;2024-03-17T10:30:42;8.07;;;4.83;;
35891;SDS011;21993;42.672;23.296;2024-03-17T10:33:22;6.33;;;4.50;;
35891;SDS011;21993;42.672;23.296;2024-03-17T10:36:02;6.23;;;3.77;;
35891;SDS011;21993;42.672;23.296;2024-03-17T10:38:30;4.83;;;3.70;;
35891;SDS011;21993;42.672;23.296;2024-03-17T10:40:56;4.23;;;3.20;;
35891;SDS011;21993;42.672;23.296;2024-03-17T10:43:22;3.63;;;2.60;;
35891;SDS011;21993;42.672;23.296;2024-03-17T10:45:53;2.50;;;2.30;;
35891;SDS011;21993;42.672;23.296;2024-03-17T10:48:20;4.17;;;3.20;;
35891;SDS011;21993;42.672;23.296;2024-03-17T10:50:47;5.50;;;3.27;;
35891;SDS011;21993;42.672;23.296;2024-03-17T10:53:15;8.10;;;3.80;;
35891;SDS011;21993;42.672;23.296;2024-03-17T10:55:51;3.90;;;3.27;;
35891;SDS011;21993;42.672;23.296;2024-03-17T10:58:42;5.17;;;2.90;;
35891;SDS011;21993;42.672;23.296;2024-03-17T11:01:14;5.97;;;3.60;;
35891;SDS011;21993;42.672;23.296;2024-03-17T11:03:40;5.83;;;4.20;;
35891;SDS011;21993;42.672;23.296;2024-03-17T11:06:07;6.50;;;3.63;;
35891;SDS011;21993;42.672;23.296;2024-03-17T11:08:33;5.33;;;4.00;;
35891;SDS011;21993;42.672;23.296;2024-03-17T11:11:00;7.73;;;4.40;;
35891;SDS011;21993;42.672;23.296;2024-03-17T11:13:27;5.97;;;4.70;;
35891;SDS011;21993;42.672;23.296;2024-03-17T11:15:54;6.00;;;4.60;;
35891;SDS011;21993;42.672;23.296;2024-03-17T11:21:00;7.23;;;4.63;;
35891;SDS011;21993;42.672;23.296;2024-03-17T11:23:40;7.10;;;4.87;;
35891;SDS011;21993;42.672;23.296;2024-03-17T11:26:07;5.70;;;4.60;;
35891;SDS011;21993;42.672;23.296;2024-03-17T11:34:00;4.37;;;3.83;;
35891;SDS011;21993;42.672;23.296;2024-03-17T11:47:01;4.47;;;3.90;;
35891;SDS011;21993;42.672;23.296;2024-03-17T11:51:55;3.23;;;2.77;;
35891;SDS011;21993;42.672;23.296;2024-03-17T11:54:23;5.03;;;3.10;;
35891;SDS011;21993;42.672;23.296;2024-03-17T11:56:54;5.50;;;3.83;;
35891;SDS011;21993;42.672;23.296;2024-03-17T11:59:22;5.90;;;4.10;;
35891;SDS011;21993;42.672;23.296;2024-03-17T12:01:50;6.23;;;3.90;;
35891;SDS011;21993;42.672;23.296;2024-03-17T12:04:17;4.97;;;3.77;;
35891;SDS011;21993;42.672;23.296;2024-03-17T12:06:45;5.10;;;4.03;;
35891;SDS011;21993;42.672;23.296;2024-03-17T12:09:17;7.57;;;4.33;;
35891;SDS011;21993;42.672;23.296;2024-03-17T12:11:51;4.73;;;4.00;;
35891;SDS011;21993;42.672;23.296;2024-03-17T12:14:24;5.50;;;3.87;;
35891;SDS011;21993;42.672;23.296;2024-03-17T12:16:54;5.80;;;3.97;;
35891;SDS011;21993;42.672;23.296;2024-03-17T12:19:21;4.93;;;4.00;;
35891;SDS011;21993;42.672;23.296;2024-03-17T12:21:49;5.50;;;4.07;;
35891;SDS011;21993;42.672;23.296;2024-03-17T12:24:23;5.27;;;3.90;;
35891;SDS011;21993;42.672;23.296;2024-03-17T12:26:50;6.97;;;3.63;;
35891;SDS011;21993;42.672;23.296;2024-03-17T12:32:04;6.10;;;4.17;;
35891;SDS011;21993;42.672;23.296;2024-03-17T12:34:33;4.87;;;3.57;;
35891;SDS011;21993;42.672;23.296;2024-03-17T12:36:59;4.33;;;3.67;;
35891;SDS011;21993;42.672;23.296;2024-03-17T12:39:32;6.07;;;4.10;;
35891;SDS011;21993;42.672;23.296;2024-03-17T12:44:48;5.77;;;4.77;;
35891;SDS011;21993;42.672;23.296;2024-03-17T12:47:21;6.77;;;4.37;;
35891;SDS011;21993;42.672;23.296;2024-03-17T12:52:26;6.63;;;4.20;;
35891;SDS011;21993;42.672;23.296;2024-03-17T12:55:17;8.13;;;4.50;;
35891;SDS011;21993;42.672;23.296;2024-03-17T13:00:46;6.27;;;4.70;;
35891;SDS011;21993;42.672;23.296;2024-03-17T13:03:33;6.13;;;5.27;;
35891;SDS011;21993;42.672;23.296;2024-03-17T13:06:01;5.67;;;4.70;;
35891;SDS011;21993;42.672;23.296;2024-03-17T13:08:29;8.83;;;5.10;;
35891;SDS011;21993;42.672;23.296;2024-03-17T13:10:56;6.20;;;4.77;;
35891;SDS011;21993;42.672;23.296;2024-03-17T13:13:22;7.67;;;5.20;;
35891;SDS011;21993;42.672;23.296;2024-03-17T13:15:48;6.53;;;4.90;;
35891;SDS011;21993;42.672;23.296;2024-03-17T13:18:17;7.67;;;5.17;;
35891;SDS011;21993;42.672;23.296;2024-03-17T13:20:44;7.90;;;5.33;;
35891;SDS011;21993;42.672;23.296;2024-03-17T13:23:10;7.77;;;5.20;;
35891;SDS011;21993;42.672;23.296;2024-03-17T13:25:36;9.63;;;5.40;;
35891;SDS011;21993;42.672;23.296;2024-03-17T13:28:03;6.23;;;5.63;;
35891;SDS011;21993;42.672;23.296;2024-03-17T13:30:29;8.17;;;4.87;;
35891;SDS011;21993;42.672;23.296;2024-03-17T13:32:57;10.37;;;5.40;;
35891;SDS011;21993;42.672;23.296;2024-03-17T13:35:26;5.20;;;4.60;;
35891;SDS011;21993;42.672;23.296;2024-03-17T13:37:54;6.67;;;5.73;;
35891;SDS011;21993;42.672;23.296;2024-03-17T13:40:20;8.87;;;5.07;;
35891;SDS011;21993;42.672;23.296;2024-03-17T13:42:50;7.70;;;5.23;;
35891;SDS011;21993;42.672;23.296;2024-03-17T13:45:18;8.40;;;5.97;;
35891;SDS011;21993;42.672;23.296;2024-03-17T13:48:01;9.57;;;5.40;;
35891;SDS011;21993;42.672;23.296;2024-03-17T13:50:31;8.43;;;5.80;;
35891;SDS011;21993;42.672;23.296;2024-03-17T13:52:57;7.27;;;5.40;;
35891;SDS011;21993;42.672;23.296;2024-03-17T13:55:23;7.33;;;5.30;;
35891;SDS011;21993;42.672;23.296;2024-03-17T13:57:51;7.60;;;5.90;;
35891;SDS011;21993;42.672;23.296;2024-03-17T14:00:22;7.30;;;5.33;;
35891;SDS011;21993;42.672;23.296;2024-03-17T14:02:49;9.93;;;6.83;;
35891;SDS011;21993;42.672;23.296;2024-03-17T14:05:25;7.93;;;5.90;;
35891;SDS011;21993;42.672;23.296;2024-03-17T14:07:51;11.03;;;6.70;;
35891;SDS011;21993;42.672;23.296;2024-03-17T14:10:19;13.40;;;7.47;;
35891;SDS011;21993;42.672;23.296;2024-03-17T14:12:46;8.90;;;6.40;;
35891;SDS011;21993;42.672;23.296;2024-03-17T14:15:12;7.40;;;5.77;;
35891;SDS011;21993;42.672;23.296;2024-03-17T14:17:40;7.87;;;6.00;;
35891;SDS011;21993;42.672;23.296;2024-03-17T14:20:06;9.43;;;6.77;;
35891;SDS011;21993;42.672;23.296;2024-03-17T14:22:35;11.53;;;6.67;;
35891;SDS011;21993;42.672;23.296;2024-03-17T14:25:01;8.57;;;5.47;;
35891;SDS011;21993;42.672;23.296;2024-03-17T14:27:27;8.80;;;5.63;;
35891;SDS011;21993;42.672;23.296;2024-03-17T14:29:53;9.53;;;6.00;;
35891;SDS011;21993;42.672;23.296;2024-03-17T14:32:18;7.53;;;5.87;;
35891;SDS011;21993;42.672;23.296;2024-03-17T14:34:44;11.20;;;6.17;;
35891;SDS011;21993;42.672;23.296;2024-03-17T14:37:11;9.70;;;7.10;;
35891;SDS011;21993;42.672;23.296;2024-03-17T14:39:37;12.63;;;6.57;;
35891;SDS011;21993;42.672;23.296;2024-03-17T14:42:03;9.60;;;6.47;;
35891;SDS011;21993;42.672;23.296;2024-03-17T14:44:29;8.87;;;6.30;;
35891;SDS011;21993;42.672;23.296;2024-03-17T14:46:55;8.33;;;6.53;;
35891;SDS011;21993;42.672;23.296;2024-03-17T14:49:20;8.37;;;5.90;;
35891;SDS011;21993;42.672;23.296;2024-03-17T14:51:46;10.10;;;5.93;;
35891;SDS011;21993;42.672;23.296;2024-03-17T14:54:12;9.07;;;6.10;;
35891;SDS011;21993;42.672;23.296;2024-03-17T14:56:39;13.30;;;6.83;;